sensor_id;sensor_type;location;lat;lon;timestamp;P1;durP1;ratioP1;P2;durP2;ratioP2
43819;SDS011;59678;52.476;6.046;2022-09-13T00:00:32;8.52;;;6.50;;
43819;SDS011;59678;52.476;6.046;2022-09-13T00:02:58;8.18;;;6.60;;
43819;SDS011;59678;52.476;6.046;2022-09-13T00:05:24;10.98;;;6.65;;
43819;SDS011;59678;52.476;6.046;2022-09-13T00:07:50;10.57;;;7.28;;
43819;SDS011;59678;52.476;6.046;2022-09-13T00:10:15;10.48;;;8.18;;
43819;SDS011;59678;52.476;6.046;2022-09-13T00:12:41;11.75;;;8.57;;
43819;SDS011;59678;52.476;6.046;2022-09-13T00:15:07;11.88;;;8.55;;
43819;SDS011;59678;52.476;6.046;2022-09-13T00:17:33;13.13;;;9.18;;
43819;SDS011;59678;52.476;6.046;2022-09-13T00:19:59;13.05;;;9.75;;
43819;SDS011;59678;52.476;6.046;2022-09-13T00:22:25;14.27;;;9.45;;
43819;SDS011;59678;52.476;6.046;2022-09-13T00:24:50;15.32;;;10.95;;
43819;SDS011;59678;52.476;6.046;2022-09-13T00:27:16;16.33;;;10.63;;
43819;SDS011;59678;52.476;6.046;2022-09-13T00:29:42;16.40;;;10.10;;
43819;SDS011;59678;52.476;6.046;2022-09-13T00:32:07;16.58;;;11.75;;
43819;SDS011;59678;52.476;6.046;2022-09-13T00:34:33;17.95;;;11.45;;
43819;SDS011;59678;52.476;6.046;2022-09-13T00:36:58;14.55;;;11.75;;
43819;SDS011;59678;52.476;6.046;2022-09-13T00:39:24;15.60;;;12.10;;
43819;SDS011;59678;52.476;6.046;2022-09-13T00:41:49;15.90;;;10.95;;
43819;SDS011;59678;52.476;6.046;2022-09-13T00:46:59;18.50;;;12.45;;
43819;SDS011;59678;52.476;6.046;2022-09-13T00:49:35;18.70;;;12.68;;
43819;SDS011;59678;52.476;6.046;2022-09-13T00:52:07;17.08;;;12.63;;
43819;SDS011;59678;52.476;6.046;2022-09-13T00:54:35;18.02;;;13.55;;
43819;SDS011;59678;52.476;6.046;2022-09-13T00:57:04;19.58;;;13.73;;
43819;SDS011;59678;52.476;6.046;2022-09-13T00:59:38;20.70;;;14.45;;
43819;SDS011;59678;52.476;6.046;2022-09-13T01:02:04;18.53;;;14.13;;
43819;SDS011;59678;52.476;6.046;2022-09-13T01:04:31;18.55;;;14.70;;
43819;SDS011;59678;52.476;6.046;2022-09-13T01:06:59;20.20;;;15.40;;
43819;SDS011;59678;52.476;6.046;2022-09-13T01:09:26;21.23;;;15.05;;
43819;SDS011;59678;52.476;6.046;2022-09-13T01:12:03;21.13;;;14.52;;
43819;SDS011;59678;52.476;6.046;2022-09-13T01:14:32;21.45;;;14.90;;
43819;SDS011;59678;52.476;6.046;2022-09-13T01:16:59;21.27;;;15.75;;
43819;SDS011;59678;52.476;6.046;2022-09-13T01:19:24;22.65;;;16.05;;
43819;SDS011;59678;52.476;6.046;2022-09-13T01:27:27;25.17;;;16.98;;
43819;SDS011;59678;52.476;6.046;2022-09-13T01:35:22;18.55;;;12.43;;
43819;SDS011;59678;52.476;6.046;2022-09-13T01:37:53;20.20;;;12.43;;
43819;SDS011;59678;52.476;6.046;2022-09-13T01:45:47;22.60;;;14.48;;
43819;SDS011;59678;52.476;6.046;2022-09-13T01:48:22;22.35;;;13.82;;
43819;SDS011;59678;52.476;6.046;2022-09-13T01:58:40;23.05;;;15.80;;
43819;SDS011;59678;52.476;6.046;2022-09-13T02:03:51;21.08;;;14.82;;
43819;SDS011;59678;52.476;6.046;2022-09-13T02:06:22;24.10;;;15.98;;
43819;SDS011;59678;52.476;6.046;2022-09-13T02:08:50;21.38;;;15.40;;
43819;SDS011;59678;52.476;6.046;2022-09-13T02:11:17;21.13;;;14.88;;
43819;SDS011;59678;52.476;6.046;2022-09-13T02:13:48;21.85;;;14.50;;
43819;SDS011;59678;52.476;6.046;2022-09-13T02:16:15;24.23;;;15.27;;
43819;SDS011;59678;52.476;6.046;2022-09-13T02:18:43;23.95;;;15.88;;
43819;SDS011;59678;52.476;6.046;2022-09-13T02:21:13;23.00;;;15.52;;
43819;SDS011;59678;52.476;6.046;2022-09-13T02:23:42;24.23;;;16.20;;
43819;SDS011;59678;52.476;6.046;2022-09-13T02:26:09;22.58;;;15.95;;
43819;SDS011;59678;52.476;6.046;2022-09-13T02:28:38;19.52;;;14.57;;
43819;SDS011;59678;52.476;6.046;2022-09-13T02:31:07;23.27;;;14.48;;
43819;SDS011;59678;52.476;6.046;2022-09-13T02:33:37;22.17;;;14.52;;
43819;SDS011;59678;52.476;6.046;2022-09-13T02:38:34;21.65;;;14.95;;
43819;SDS011;59678;52.476;6.046;2022-09-13T02:41:05;24.92;;;13.90;;
43819;SDS011;59678;52.476;6.046;2022-09-13T02:43:36;22.25;;;14.50;;
43819;SDS011;59678;52.476;6.046;2022-09-13T02:48:49;22.83;;;14.63;;
43819;SDS011;59678;52.476;6.046;2022-09-13T02:51:19;20.92;;;14.57;;
43819;SDS011;59678;52.476;6.046;2022-09-13T02:53:56;18.67;;;13.65;;
43819;SDS011;59678;52.476;6.046;2022-09-13T02:59:14;21.42;;;13.88;;
43819;SDS011;59678;52.476;6.046;2022-09-13T03:01:40;18.50;;;13.00;;
43819;SDS011;59678;52.476;6.046;2022-09-13T03:04:09;21.85;;;13.95;;
43819;SDS011;59678;52.476;6.046;2022-09-13T03:06:36;18.98;;;13.35;;
43819;SDS011;59678;52.476;6.046;2022-09-13T03:09:02;18.95;;;13.63;;
43819;SDS011;59678;52.476;6.046;2022-09-13T03:11:37;19.98;;;14.63;;
43819;SDS011;59678;52.476;6.046;2022-09-13T03:19:27;24.90;;;14.27;;
43819;SDS011;59678;52.476;6.046;2022-09-13T03:24:23;23.77;;;15.00;;
43819;SDS011;59678;52.476;6.046;2022-09-13T03:27:01;22.55;;;15.02;;
43819;SDS011;59678;52.476;6.046;2022-09-13T03:32:05;22.30;;;14.88;;
43819;SDS011;59678;52.476;6.046;2022-09-13T03:37:16;18.05;;;12.98;;
43819;SDS011;59678;52.476;6.046;2022-09-13T03:39:56;20.23;;;14.57;;
43819;SDS011;59678;52.476;6.046;2022-09-13T03:44:51;24.98;;;15.13;;
43819;SDS011;59678;52.476;6.046;2022-09-13T03:47:18;24.45;;;15.25;;
43819;SDS011;59678;52.476;6.046;2022-09-13T03:49:44;23.05;;;15.02;;
43819;SDS011;59678;52.476;6.046;2022-09-13T03:52:10;24.05;;;15.27;;
43819;SDS011;59678;52.476;6.046;2022-09-13T03:54:36;23.00;;;14.35;;
43819;SDS011;59678;52.476;6.046;2022-09-13T03:57:06;22.60;;;15.82;;
43819;SDS011;59678;52.476;6.046;2022-09-13T03:59:35;23.77;;;14.23;;
43819;SDS011;59678;52.476;6.046;2022-09-13T04:02:03;21.10;;;13.88;;
43819;SDS011;59678;52.476;6.046;2022-09-13T04:04:29;22.77;;;14.95;;
43819;SDS011;59678;52.476;6.046;2022-09-13T04:06:55;22.08;;;15.77;;
43819;SDS011;59678;52.476;6.046;2022-09-13T04:09:21;27.38;;;15.88;;
43819;SDS011;59678;52.476;6.046;2022-09-13T04:11:47;22.92;;;14.45;;
43819;SDS011;59678;52.476;6.046;2022-09-13T04:14:13;23.27;;;15.13;;
43819;SDS011;59678;52.476;6.046;2022-09-13T04:16:40;26.00;;;16.75;;
43819;SDS011;59678;52.476;6.046;2022-09-13T04:19:06;22.20;;;16.45;;
43819;SDS011;59678;52.476;6.046;2022-09-13T04:21:32;21.05;;;15.15;;
43819;SDS011;59678;52.476;6.046;2022-09-13T04:23:57;25.33;;;16.33;;
43819;SDS011;59678;52.476;6.046;2022-09-13T04:26:23;23.67;;;16.98;;
43819;SDS011;59678;52.476;6.046;2022-09-13T04:28:48;23.38;;;16.45;;
43819;SDS011;59678;52.476;6.046;2022-09-13T04:31:14;23.70;;;16.63;;
43819;SDS011;59678;52.476;6.046;2022-09-13T04:33:39;22.33;;;14.77;;
43819;SDS011;59678;52.476;6.046;2022-09-13T04:36:05;23.08;;;15.50;;
43819;SDS011;59678;52.476;6.046;2022-09-13T04:38:31;25.75;;;15.30;;
43819;SDS011;59678;52.476;6.046;2022-09-13T04:40:56;24.50;;;16.02;;
43819;SDS011;59678;52.476;6.046;2022-09-13T04:43:22;26.75;;;16.98;;
43819;SDS011;59678;52.476;6.046;2022-09-13T04:45:48;25.70;;;16.92;;
43819;SDS011;59678;52.476;6.046;2022-09-13T04:48:14;23.85;;;16.02;;
43819;SDS011;59678;52.476;6.046;2022-09-13T04:50:40;25.60;;;16.88;;
43819;SDS011;59678;52.476;6.046;2022-09-13T04:53:05;23.88;;;17.27;;
43819;SDS011;59678;52.476;6.046;2022-09-13T04:55:31;25.85;;;16.70;;
43819;SDS011;59678;52.476;6.046;2022-09-13T04:57:56;26.77;;;16.88;;
43819;SDS011;59678;52.476;6.046;2022-09-13T05:00:22;28.80;;;17.80;;
43819;SDS011;59678;52.476;6.046;2022-09-13T05:02:53;22.80;;;16.30;;
43819;SDS011;59678;52.476;6.046;2022-09-13T05:05:18;26.17;;;16.20;;
43819;SDS011;59678;52.476;6.046;2022-09-13T05:07:44;29.50;;;16.13;;
43819;SDS011;59678;52.476;6.046;2022-09-13T05:10:09;26.73;;;17.17;;
43819;SDS011;59678;52.476;6.046;2022-09-13T05:12:35;25.77;;;16.83;;
43819;SDS011;59678;52.476;6.046;2022-09-13T05:15:00;28.20;;;18.45;;
43819;SDS011;59678;52.476;6.046;2022-09-13T05:17:26;26.00;;;17.25;;
43819;SDS011;59678;52.476;6.046;2022-09-13T05:19:54;24.80;;;14.65;;
43819;SDS011;59678;52.476;6.046;2022-09-13T05:22:21;24.55;;;17.67;;
43819;SDS011;59678;52.476;6.046;2022-09-13T05:24:46;27.85;;;17.63;;
43819;SDS011;59678;52.476;6.046;2022-09-13T05:27:12;23.88;;;16.52;;
43819;SDS011;59678;52.476;6.046;2022-09-13T05:29:37;26.63;;;16.73;;
43819;SDS011;59678;52.476;6.046;2022-09-13T05:32:03;25.55;;;15.93;;
43819;SDS011;59678;52.476;6.046;2022-09-13T05:34:28;27.33;;;16.60;;
43819;SDS011;59678;52.476;6.046;2022-09-13T05:36:54;24.70;;;15.77;;
43819;SDS011;59678;52.476;6.046;2022-09-13T05:39:19;22.27;;;15.50;;
43819;SDS011;59678;52.476;6.046;2022-09-13T05:41:46;24.05;;;14.95;;
43819;SDS011;59678;52.476;6.046;2022-09-13T05:44:12;25.77;;;16.42;;
43819;SDS011;59678;52.476;6.046;2022-09-13T05:46:38;23.50;;;14.82;;
43819;SDS011;59678;52.476;6.046;2022-09-13T05:49:04;24.58;;;16.20;;
43819;SDS011;59678;52.476;6.046;2022-09-13T05:51:29;24.17;;;16.38;;
43819;SDS011;59678;52.476;6.046;2022-09-13T05:53:56;24.25;;;16.08;;
43819;SDS011;59678;52.476;6.046;2022-09-13T05:56:23;26.80;;;17.58;;
43819;SDS011;59678;52.476;6.046;2022-09-13T05:58:50;23.67;;;16.08;;
43819;SDS011;59678;52.476;6.046;2022-09-13T06:01:16;22.90;;;16.80;;
43819;SDS011;59678;52.476;6.046;2022-09-13T06:03:42;21.15;;;15.43;;
43819;SDS011;59678;52.476;6.046;2022-09-13T06:06:09;23.55;;;16.13;;
43819;SDS011;59678;52.476;6.046;2022-09-13T06:08:35;25.23;;;15.93;;
43819;SDS011;59678;52.476;6.046;2022-09-13T06:11:02;22.83;;;16.40;;
43819;SDS011;59678;52.476;6.046;2022-09-13T06:13:28;18.35;;;10.93;;
43819;SDS011;59678;52.476;6.046;2022-09-13T06:15:54;23.40;;;14.45;;
43819;SDS011;59678;52.476;6.046;2022-09-13T06:18:20;32.88;;;20.30;;
43819;SDS011;59678;52.476;6.046;2022-09-13T06:20:46;30.30;;;21.73;;
43819;SDS011;59678;52.476;6.046;2022-09-13T06:23:12;31.15;;;20.48;;
43819;SDS011;59678;52.476;6.046;2022-09-13T06:25:38;30.83;;;19.63;;
43819;SDS011;59678;52.476;6.046;2022-09-13T06:28:04;29.67;;;18.23;;
43819;SDS011;59678;52.476;6.046;2022-09-13T06:30:29;31.60;;;18.73;;
43819;SDS011;59678;52.476;6.046;2022-09-13T06:32:55;26.30;;;17.90;;
43819;SDS011;59678;52.476;6.046;2022-09-13T06:35:21;22.83;;;16.20;;
43819;SDS011;59678;52.476;6.046;2022-09-13T06:37:46;21.75;;;14.35;;
43819;SDS011;59678;52.476;6.046;2022-09-13T06:40:12;27.38;;;16.05;;
43819;SDS011;59678;52.476;6.046;2022-09-13T06:42:37;21.00;;;13.30;;
43819;SDS011;59678;52.476;6.046;2022-09-13T06:45:03;20.73;;;13.55;;
43819;SDS011;59678;52.476;6.046;2022-09-13T06:47:29;19.33;;;12.48;;
43819;SDS011;59678;52.476;6.046;2022-09-13T06:49:55;22.17;;;13.50;;
43819;SDS011;59678;52.476;6.046;2022-09-13T06:52:21;18.73;;;10.13;;
43819;SDS011;59678;52.476;6.046;2022-09-13T06:54:48;13.45;;;9.70;;
43819;SDS011;59678;52.476;6.046;2022-09-13T06:57:13;15.00;;;9.35;;
43819;SDS011;59678;52.476;6.046;2022-09-13T06:59:39;10.00;;;6.95;;
43819;SDS011;59678;52.476;6.046;2022-09-13T07:02:04;8.88;;;4.60;;
43819;SDS011;59678;52.476;6.046;2022-09-13T07:04:30;10.02;;;4.07;;
43819;SDS011;59678;52.476;6.046;2022-09-13T07:06:56;6.93;;;4.25;;
43819;SDS011;59678;52.476;6.046;2022-09-13T07:09:22;8.23;;;3.70;;
43819;SDS011;59678;52.476;6.046;2022-09-13T07:11:48;9.05;;;3.78;;
43819;SDS011;59678;52.476;6.046;2022-09-13T07:14:15;10.00;;;2.90;;
43819;SDS011;59678;52.476;6.046;2022-09-13T07:16:41;5.90;;;2.83;;
43819;SDS011;59678;52.476;6.046;2022-09-13T07:19:11;9.80;;;2.97;;
43819;SDS011;59678;52.476;6.046;2022-09-13T07:21:36;4.45;;;2.58;;
43819;SDS011;59678;52.476;6.046;2022-09-13T07:24:02;4.57;;;2.30;;
43819;SDS011;59678;52.476;6.046;2022-09-13T07:26:28;4.70;;;1.98;;
43819;SDS011;59678;52.476;6.046;2022-09-13T07:28:55;7.20;;;2.00;;
43819;SDS011;59678;52.476;6.046;2022-09-13T07:31:22;8.13;;;2.30;;
43819;SDS011;59678;52.476;6.046;2022-09-13T07:33:58;3.88;;;1.88;;
43819;SDS011;59678;52.476;6.046;2022-09-13T07:36:25;4.35;;;1.63;;
43819;SDS011;59678;52.476;6.046;2022-09-13T07:38:50;4.82;;;1.73;;
43819;SDS011;59678;52.476;6.046;2022-09-13T07:41:17;5.03;;;1.70;;
43819;SDS011;59678;52.476;6.046;2022-09-13T07:43:43;4.38;;;1.40;;
43819;SDS011;59678;52.476;6.046;2022-09-13T07:46:10;3.25;;;1.58;;
43819;SDS011;59678;52.476;6.046;2022-09-13T07:48:36;4.10;;;1.52;;
43819;SDS011;59678;52.476;6.046;2022-09-13T07:51:04;3.60;;;1.20;;
43819;SDS011;59678;52.476;6.046;2022-09-13T07:53:31;3.25;;;1.20;;
43819;SDS011;59678;52.476;6.046;2022-09-13T07:56:00;6.10;;;1.65;;
43819;SDS011;59678;52.476;6.046;2022-09-13T07:58:26;2.63;;;1.23;;
43819;SDS011;59678;52.476;6.046;2022-09-13T08:00:52;3.50;;;1.40;;
43819;SDS011;59678;52.476;6.046;2022-09-13T08:03:17;3.55;;;1.38;;
43819;SDS011;59678;52.476;6.046;2022-09-13T08:05:43;1.80;;;1.00;;
43819;SDS011;59678;52.476;6.046;2022-09-13T08:08:08;4.13;;;1.20;;
43819;SDS011;59678;52.476;6.046;2022-09-13T08:10:34;3.55;;;1.92;;
43819;SDS011;59678;52.476;6.046;2022-09-13T08:12:59;3.90;;;1.50;;
43819;SDS011;59678;52.476;6.046;2022-09-13T08:15:25;3.85;;;1.50;;
43819;SDS011;59678;52.476;6.046;2022-09-13T08:17:51;3.72;;;1.33;;
43819;SDS011;59678;52.476;6.046;2022-09-13T08:20:18;4.05;;;1.70;;
43819;SDS011;59678;52.476;6.046;2022-09-13T08:22:44;10.98;;;5.40;;
43819;SDS011;59678;52.476;6.046;2022-09-13T08:25:10;4.15;;;1.40;;
43819;SDS011;59678;52.476;6.046;2022-09-13T08:27:35;5.30;;;1.10;;
43819;SDS011;59678;52.476;6.046;2022-09-13T08:30:01;6.18;;;1.40;;
43819;SDS011;59678;52.476;6.046;2022-09-13T08:32:26;2.50;;;1.15;;
43819;SDS011;59678;52.476;6.046;2022-09-13T08:34:52;3.03;;;1.70;;
43819;SDS011;59678;52.476;6.046;2022-09-13T08:37:17;3.47;;;1.05;;
43819;SDS011;59678;52.476;6.046;2022-09-13T08:39:43;2.72;;;0.90;;
43819;SDS011;59678;52.476;6.046;2022-09-13T08:42:23;5.78;;;1.10;;
43819;SDS011;59678;52.476;6.046;2022-09-13T08:44:52;1.85;;;0.95;;
43819;SDS011;59678;52.476;6.046;2022-09-13T08:49:59;2.53;;;1.10;;
43819;SDS011;59678;52.476;6.046;2022-09-13T08:54:51;3.42;;;1.15;;
43819;SDS011;59678;52.476;6.046;2022-09-13T09:02:44;4.32;;;0.90;;
43819;SDS011;59678;52.476;6.046;2022-09-13T09:05:17;1.65;;;1.00;;
43819;SDS011;59678;52.476;6.046;2022-09-13T09:07:44;3.88;;;1.00;;
43819;SDS011;59678;52.476;6.046;2022-09-13T09:15:57;7.18;;;2.47;;
43819;SDS011;59678;52.476;6.046;2022-09-13T09:18:35;2.90;;;0.90;;
43819;SDS011;59678;52.476;6.046;2022-09-13T09:21:02;2.22;;;1.02;;
43819;SDS011;59678;52.476;6.046;2022-09-13T09:23:35;4.88;;;0.98;;
43819;SDS011;59678;52.476;6.046;2022-09-13T09:26:19;3.30;;;1.67;;
43819;SDS011;59678;52.476;6.046;2022-09-13T09:28:55;1.02;;;0.68;;
43819;SDS011;59678;52.476;6.046;2022-09-13T09:33:51;2.92;;;0.90;;
43819;SDS011;59678;52.476;6.046;2022-09-13T09:38:45;4.97;;;1.00;;
43819;SDS011;59678;52.476;6.046;2022-09-13T09:41:17;2.78;;;0.95;;
43819;SDS011;59678;52.476;6.046;2022-09-13T09:43:53;2.55;;;0.80;;
43819;SDS011;59678;52.476;6.046;2022-09-13T09:46:22;4.72;;;1.00;;
43819;SDS011;59678;52.476;6.046;2022-09-13T09:48:54;2.28;;;1.10;;
43819;SDS011;59678;52.476;6.046;2022-09-13T09:51:21;3.80;;;1.00;;
43819;SDS011;59678;52.476;6.046;2022-09-13T09:53:49;3.72;;;1.38;;
43819;SDS011;59678;52.476;6.046;2022-09-13T09:56:19;2.17;;;0.85;;
43819;SDS011;59678;52.476;6.046;2022-09-13T09:58:45;5.40;;;1.95;;
43819;SDS011;59678;52.476;6.046;2022-09-13T10:01:15;2.13;;;1.00;;
43819;SDS011;59678;52.476;6.046;2022-09-13T10:03:42;5.43;;;1.80;;
43819;SDS011;59678;52.476;6.046;2022-09-13T10:06:17;6.10;;;1.58;;
43819;SDS011;59678;52.476;6.046;2022-09-13T10:08:43;2.45;;;0.80;;
43819;SDS011;59678;52.476;6.046;2022-09-13T10:11:11;2.72;;;0.80;;
43819;SDS011;59678;52.476;6.046;2022-09-13T10:13:36;1.58;;;0.63;;
43819;SDS011;59678;52.476;6.046;2022-09-13T10:16:04;2.53;;;1.08;;
43819;SDS011;59678;52.476;6.046;2022-09-13T10:18:33;3.95;;;1.30;;
43819;SDS011;59678;52.476;6.046;2022-09-13T10:21:01;3.78;;;1.23;;
43819;SDS011;59678;52.476;6.046;2022-09-13T10:23:27;3.30;;;1.17;;
43819;SDS011;59678;52.476;6.046;2022-09-13T10:26:03;2.30;;;1.05;;
43819;SDS011;59678;52.476;6.046;2022-09-13T10:28:31;2.85;;;0.63;;
43819;SDS011;59678;52.476;6.046;2022-09-13T10:31:05;2.97;;;0.60;;
43819;SDS011;59678;52.476;6.046;2022-09-13T10:36:02;2.65;;;0.57;;
43819;SDS011;59678;52.476;6.046;2022-09-13T10:38:37;3.35;;;0.82;;
43819;SDS011;59678;52.476;6.046;2022-09-13T10:41:04;2.80;;;0.80;;
43819;SDS011;59678;52.476;6.046;2022-09-13T10:43:30;2.33;;;0.80;;
43819;SDS011;59678;52.476;6.046;2022-09-13T10:46:22;5.63;;;0.70;;
43819;SDS011;59678;52.476;6.046;2022-09-13T10:48:48;2.67;;;0.50;;
43819;SDS011;59678;52.476;6.046;2022-09-13T10:53:46;2.25;;;0.63;;
43819;SDS011;59678;52.476;6.046;2022-09-13T10:56:22;1.67;;;0.65;;
43819;SDS011;59678;52.476;6.046;2022-09-13T10:58:49;1.23;;;0.60;;
43819;SDS011;59678;52.476;6.046;2022-09-13T11:04:07;1.52;;;0.63;;
43819;SDS011;59678;52.476;6.046;2022-09-13T11:06:49;5.53;;;0.85;;
43819;SDS011;59678;52.476;6.046;2022-09-13T11:09:18;4.80;;;0.70;;
43819;SDS011;59678;52.476;6.046;2022-09-13T11:11:51;2.88;;;0.70;;
43819;SDS011;59678;52.476;6.046;2022-09-13T11:16:53;4.43;;;0.80;;
43819;SDS011;59678;52.476;6.046;2022-09-13T11:25:03;3.42;;;0.80;;
43819;SDS011;59678;52.476;6.046;2022-09-13T11:30:17;1.27;;;0.47;;
43819;SDS011;59678;52.476;6.046;2022-09-13T11:38:07;2.03;;;1.10;;
43819;SDS011;59678;52.476;6.046;2022-09-13T11:53:37;3.67;;;0.73;;
43819;SDS011;59678;52.476;6.046;2022-09-13T11:56:11;3.67;;;0.67;;
43819;SDS011;59678;52.476;6.046;2022-09-13T11:58:47;2.25;;;0.40;;
43819;SDS011;59678;52.476;6.046;2022-09-13T12:01:16;2.47;;;0.70;;
43819;SDS011;59678;52.476;6.046;2022-09-13T12:03:53;3.50;;;0.50;;
43819;SDS011;59678;52.476;6.046;2022-09-13T12:08:47;4.97;;;0.73;;
43819;SDS011;59678;52.476;6.046;2022-09-13T12:11:20;3.53;;;0.75;;
43819;SDS011;59678;52.476;6.046;2022-09-13T12:13:56;8.10;;;0.80;;
43819;SDS011;59678;52.476;6.046;2022-09-13T12:16:30;6.47;;;0.80;;
43819;SDS011;59678;52.476;6.046;2022-09-13T12:18:57;1.52;;;0.60;;
43819;SDS011;59678;52.476;6.046;2022-09-13T12:21:25;4.07;;;0.93;;
43819;SDS011;59678;52.476;6.046;2022-09-13T12:31:40;15.10;;;0.93;;
43819;SDS011;59678;52.476;6.046;2022-09-13T12:34:08;2.65;;;0.52;;
43819;SDS011;59678;52.476;6.046;2022-09-13T12:36:45;1.92;;;0.60;;
43819;SDS011;59678;52.476;6.046;2022-09-13T12:39:24;2.05;;;0.52;;
43819;SDS011;59678;52.476;6.046;2022-09-13T12:41:56;3.00;;;0.70;;
43819;SDS011;59678;52.476;6.046;2022-09-13T12:44:31;3.03;;;0.50;;
43819;SDS011;59678;52.476;6.046;2022-09-13T12:52:05;4.05;;;0.70;;
43819;SDS011;59678;52.476;6.046;2022-09-13T13:02:37;3.70;;;0.82;;
43819;SDS011;59678;52.476;6.046;2022-09-13T13:05:05;1.88;;;0.63;;
43819;SDS011;59678;52.476;6.046;2022-09-13T13:07:41;4.53;;;1.00;;
43819;SDS011;59678;52.476;6.046;2022-09-13T13:10:58;4.50;;;0.80;;
43819;SDS011;59678;52.476;6.046;2022-09-13T13:14:00;3.13;;;0.70;;
43819;SDS011;59678;52.476;6.046;2022-09-13T13:15:55;5.30;;;0.88;;
43819;SDS011;59678;52.476;6.046;2022-09-13T13:23:18;4.07;;;0.60;;
43819;SDS011;59678;52.476;6.046;2022-09-13T13:34:00;3.38;;;0.80;;
43819;SDS011;59678;52.476;6.046;2022-09-13T13:36:27;2.25;;;0.65;;
43819;SDS011;59678;52.476;6.046;2022-09-13T13:38:56;3.35;;;0.80;;
43819;SDS011;59678;52.476;6.046;2022-09-13T13:41:35;1.88;;;0.70;;
43819;SDS011;59678;52.476;6.046;2022-09-13T13:46:40;5.43;;;0.70;;
43819;SDS011;59678;52.476;6.046;2022-09-13T13:59:47;5.90;;;0.65;;
43819;SDS011;59678;52.476;6.046;2022-09-13T14:02:14;2.97;;;0.93;;
43819;SDS011;59678;52.476;6.046;2022-09-13T14:04:50;1.83;;;0.70;;
43819;SDS011;59678;52.476;6.046;2022-09-13T14:09:50;3.97;;;0.60;;
43819;SDS011;59678;52.476;6.046;2022-09-13T14:12:24;3.95;;;0.73;;
43819;SDS011;59678;52.476;6.046;2022-09-13T14:15:02;4.85;;;0.82;;
43819;SDS011;59678;52.476;6.046;2022-09-13T14:20:16;5.53;;;0.80;;
43819;SDS011;59678;52.476;6.046;2022-09-13T14:22:42;6.10;;;0.80;;
43819;SDS011;59678;52.476;6.046;2022-09-13T14:27:42;4.25;;;0.80;;
43819;SDS011;59678;52.476;6.046;2022-09-13T14:30:22;3.53;;;0.88;;
43819;SDS011;59678;52.476;6.046;2022-09-13T14:32:49;3.40;;;0.60;;
43819;SDS011;59678;52.476;6.046;2022-09-13T14:37:50;4.57;;;0.60;;
43819;SDS011;59678;52.476;6.046;2022-09-13T14:40:20;4.22;;;0.90;;
43819;SDS011;59678;52.476;6.046;2022-09-13T14:42:47;3.00;;;0.80;;
43819;SDS011;59678;52.476;6.046;2022-09-13T14:45:16;1.63;;;0.70;;
43819;SDS011;59678;52.476;6.046;2022-09-13T14:50:28;10.13;;;0.85;;
43819;SDS011;59678;52.476;6.046;2022-09-13T14:55:32;4.43;;;0.98;;
43819;SDS011;59678;52.476;6.046;2022-09-13T14:57:59;4.03;;;0.70;;
43819;SDS011;59678;52.476;6.046;2022-09-13T15:00:29;1.70;;;0.65;;
43819;SDS011;59678;52.476;6.046;2022-09-13T15:02:57;5.47;;;0.80;;
43819;SDS011;59678;52.476;6.046;2022-09-13T15:05:28;4.88;;;1.33;;
43819;SDS011;59678;52.476;6.046;2022-09-13T15:07:55;7.25;;;0.65;;
43819;SDS011;59678;52.476;6.046;2022-09-13T15:17:57;3.55;;;0.80;;
43819;SDS011;59678;52.476;6.046;2022-09-13T15:20:45;7.25;;;0.95;;
43819;SDS011;59678;52.476;6.046;2022-09-13T15:23:12;2.60;;;0.73;;
43819;SDS011;59678;52.476;6.046;2022-09-13T15:25:38;3.17;;;0.70;;
43819;SDS011;59678;52.476;6.046;2022-09-13T15:28:04;2.80;;;0.80;;
43819;SDS011;59678;52.476;6.046;2022-09-13T15:30:31;4.20;;;0.98;;
43819;SDS011;59678;52.476;6.046;2022-09-13T15:33:21;5.25;;;0.90;;
43819;SDS011;59678;52.476;6.046;2022-09-13T15:35:48;3.30;;;1.20;;
43819;SDS011;59678;52.476;6.046;2022-09-13T15:38:18;2.40;;;0.70;;
43819;SDS011;59678;52.476;6.046;2022-09-13T15:40:46;4.65;;;1.10;;
43819;SDS011;59678;52.476;6.046;2022-09-13T15:43:21;5.85;;;1.10;;
43819;SDS011;59678;52.476;6.046;2022-09-13T15:45:47;6.50;;;0.90;;
43819;SDS011;59678;52.476;6.046;2022-09-13T15:48:16;4.05;;;0.80;;
43819;SDS011;59678;52.476;6.046;2022-09-13T15:50:44;6.20;;;0.98;;
43819;SDS011;59678;52.476;6.046;2022-09-13T15:53:27;5.60;;;1.13;;
43819;SDS011;59678;52.476;6.046;2022-09-13T15:55:53;3.65;;;0.73;;
43819;SDS011;59678;52.476;6.046;2022-09-13T15:58:18;5.20;;;0.60;;
43819;SDS011;59678;52.476;6.046;2022-09-13T16:00:44;3.45;;;0.70;;
43819;SDS011;59678;52.476;6.046;2022-09-13T16:03:10;4.15;;;0.70;;
43819;SDS011;59678;52.476;6.046;2022-09-13T16:05:35;2.53;;;0.60;;
43819;SDS011;59678;52.476;6.046;2022-09-13T16:08:01;4.70;;;1.05;;
43819;SDS011;59678;52.476;6.046;2022-09-13T16:10:27;2.88;;;0.85;;
43819;SDS011;59678;52.476;6.046;2022-09-13T16:12:53;4.97;;;0.80;;
43819;SDS011;59678;52.476;6.046;2022-09-13T16:15:19;6.10;;;0.73;;
43819;SDS011;59678;52.476;6.046;2022-09-13T16:17:45;5.43;;;0.90;;
43819;SDS011;59678;52.476;6.046;2022-09-13T16:20:12;5.50;;;1.27;;
43819;SDS011;59678;52.476;6.046;2022-09-13T16:22:38;5.20;;;0.90;;
43819;SDS011;59678;52.476;6.046;2022-09-13T16:25:05;2.17;;;0.80;;
43819;SDS011;59678;52.476;6.046;2022-09-13T16:27:31;3.50;;;0.93;;
43819;SDS011;59678;52.476;6.046;2022-09-13T16:29:57;5.75;;;0.70;;
43819;SDS011;59678;52.476;6.046;2022-09-13T16:32:22;2.95;;;0.63;;
43819;SDS011;59678;52.476;6.046;2022-09-13T16:34:48;5.30;;;1.00;;
43819;SDS011;59678;52.476;6.046;2022-09-13T16:37:14;3.83;;;0.73;;
43819;SDS011;59678;52.476;6.046;2022-09-13T16:39:40;3.83;;;0.95;;
43819;SDS011;59678;52.476;6.046;2022-09-13T16:42:06;2.78;;;1.05;;
43819;SDS011;59678;52.476;6.046;2022-09-13T16:44:32;4.55;;;0.90;;
43819;SDS011;59678;52.476;6.046;2022-09-13T16:46:57;3.22;;;0.80;;
43819;SDS011;59678;52.476;6.046;2022-09-13T16:49:24;2.10;;;0.68;;
43819;SDS011;59678;52.476;6.046;2022-09-13T16:51:50;5.45;;;1.33;;
43819;SDS011;59678;52.476;6.046;2022-09-13T16:54:16;3.35;;;1.00;;
43819;SDS011;59678;52.476;6.046;2022-09-13T16:56:42;6.65;;;1.10;;
43819;SDS011;59678;52.476;6.046;2022-09-13T16:59:07;3.50;;;0.73;;
43819;SDS011;59678;52.476;6.046;2022-09-13T17:01:33;4.07;;;0.95;;
43819;SDS011;59678;52.476;6.046;2022-09-13T17:03:59;4.80;;;1.10;;
43819;SDS011;59678;52.476;6.046;2022-09-13T17:06:25;5.60;;;2.10;;
43819;SDS011;59678;52.476;6.046;2022-09-13T17:08:52;2.60;;;1.10;;
43819;SDS011;59678;52.476;6.046;2022-09-13T17:11:19;4.75;;;1.10;;
43819;SDS011;59678;52.476;6.046;2022-09-13T17:13:45;9.23;;;2.75;;
43819;SDS011;59678;52.476;6.046;2022-09-13T17:16:18;6.07;;;1.02;;
43819;SDS011;59678;52.476;6.046;2022-09-13T17:18:45;3.93;;;0.80;;
43819;SDS011;59678;52.476;6.046;2022-09-13T17:21:10;4.50;;;0.90;;
43819;SDS011;59678;52.476;6.046;2022-09-13T17:23:36;7.40;;;1.63;;
43819;SDS011;59678;52.476;6.046;2022-09-13T17:26:02;2.53;;;0.95;;
43819;SDS011;59678;52.476;6.046;2022-09-13T17:28:27;6.57;;;1.00;;
43819;SDS011;59678;52.476;6.046;2022-09-13T17:30:53;7.03;;;1.13;;
43819;SDS011;59678;52.476;6.046;2022-09-13T17:33:19;4.75;;;0.85;;
43819;SDS011;59678;52.476;6.046;2022-09-13T17:35:45;5.97;;;1.00;;
43819;SDS011;59678;52.476;6.046;2022-09-13T17:38:10;4.32;;;1.05;;
43819;SDS011;59678;52.476;6.046;2022-09-13T17:40:36;9.23;;;1.05;;
43819;SDS011;59678;52.476;6.046;2022-09-13T17:43:01;8.82;;;1.10;;
43819;SDS011;59678;52.476;6.046;2022-09-13T17:45:27;11.65;;;1.02;;